Wednesday, September 28, 2016, 4:30 AM EDT

KRDG, Reading Regional Airport

Location: Reading, PA, United States Lat: 40.367
Local Time: 4:30 AM EDT ( 8:30 GMT) Lon: -75.967
Time Zone: US/Eastern Elev: 344 ft

Show me the last for .
Show Decoded

2016-09-28 03:54 METAR KRDG 280754Z AUTO 00000KT 7SM CLR 11/09 A3001 RMK AO2 SLP167 T01110094 =
2016-09-28 02:54 METAR KRDG 280654Z AUTO 34003KT 10SM CLR 11/09 A3000 RMK AO2 SLP161 T01110094 =
2016-09-28 01:54 METAR KRDG 280554Z AUTO 00000KT 9SM CLR 12/10 A2999 RMK AO2 SLP161 T01170100
                 10178 20117 53010 =
2016-09-28 00:54 METAR KRDG 280454Z AUTO 00000KT 10SM CLR 12/10 A2997 RMK AO2 SLP154 T01220100
                 402390122 =
2016-09-27 23:54 METAR KRDG 280354Z AUTO 00000KT 10SM CLR 13/11 A2997 RMK AO2 SLP152 T01330106 =
2016-09-27 22:54 METAR KRDG 280254Z AUTO 36003KT 10SM CLR 14/11 A2996 RMK AO2 SLP150 T01390106
                 53017 =
2016-09-27 21:54 METAR KRDG 280154Z AUTO 33003KT 10SM CLR 14/11 A2994 RMK AO2 SLP142 T01390111 =
2016-09-27 20:54 METAR KRDG 280054Z AUTO 00000KT 10SM CLR 17/09 A2993 RMK AO2 SLP139 T01670094 =
2016-09-27 19:54 METAR KRDG 272354Z AUTO 00000KT 10SM CLR 18/09 A2991 RMK AO2 SLP134 T01780094
                 10239 20167 53012 =
2016-09-27 18:54 METAR KRDG 272254Z AUTO 00000KT 10SM CLR 19/09 A2990 RMK AO2 SLP128 T01940094 =
2016-09-27 17:54 METAR KRDG 272154Z 26005KT 10SM CLR 23/07 A2988 RMK AO2 SLP122 T02280067 =
2016-09-27 16:54 METAR KRDG 272054Z 22006KT 10SM CLR 23/08 A2988 RMK AO2 SLP120 T02330078 56013 =
2016-09-27 15:54 METAR KRDG 271954Z 22008KT 10SM CLR 23/07 A2988 RMK AO2 SLP121 T02330072 =
2016-09-27 14:54 METAR KRDG 271854Z VRB04KT 10SM FEW050 23/08 A2990 RMK AO2 SLP128 T02280078 =
2016-09-27 13:54 METAR KRDG 271754Z 30006KT 10SM FEW048 22/09 A2992 RMK AO2 SLP134 T02220089
                 10222 20156 56019 =
2016-09-27 12:54 METAR KRDG 271654Z VRB04KT 10SM FEW060 22/09 A2993 RMK AO2 SLP138 T02220094 =
2016-09-27 11:54 METAR KRDG 271554Z 10SM SCT016 19/11 A2995 RMK AO2 SLP145 T01940106 =
2016-09-27 10:54 METAR KRDG 271454Z 10SM SCT015 19/13 A2997 RMK AO2 SLP153 T01940133 50012 =
2016-09-27 09:54 METAR KRDG 271354Z 21004KT 7SM BR SCT007 SCT016 17/14 A2998 RMK AO2 SLP155
                 T01670144 =
2016-09-27 09:30 METAR KRDG 271330Z 31004KT 3SM BR SCT004 17/14 A2997 RMK AO2 SFC VIS 10
                 T01670139 =
2016-09-27 09:06 METAR KRDG 271306Z 29006KT 2 1/2SM BR FEW004 17/15 A2996 =
2016-09-27 08:54 METAR KRDG 271254Z 29005KT 2 1/2SM BKN004 16/14 A2996 RMK AO2 SFC VIS 8 SLP149
                 T01610144 =
2016-09-27 08:09 METAR KRDG 271209Z 30007KT 2 1/2SM BR BKN003 16/15 A2995 RMK AO2 SFC VIS 3
                 T01610150 =
2016-09-27 07:54 METAR KRDG 271154Z 32005KT 2 1/2SM BR FEW004 16/14 A2994 RMK AO2 SFC VIS 3
                 SLP142 60000 70029 T01560144 10167 20150 53004 =
2016-09-27 07:50 METAR KRDG 271150Z 32004KT 2SM BR FEW004 16/14 A2994 RMK AO2 TWR VIS 2 1/2 =
2016-09-27 07:45 METAR KRDG 271145Z 32005KT 1SM R36/2400VP6000FT BR VV004 15/14 A2993 RMK AO2 TWR
                 VIS 2 1/2 T01500139 =
2016-09-27 07:13 METAR KRDG 271113Z 34003KT 1/4SM R36/1400V6000FT FG VV003 15/14 A2993 RMK AO2
                 TWR VIS 2 1/2 T01500144 =
2016-09-27 07:06 METAR KRDG 271106Z 00000KT 1SM R36/2400VP6000FT BR VV003 16/14 A2993 RMK AO2 TWR
                 VIS 2 1/2 T01560144 =
2016-09-27 06:54 METAR KRDG 271054Z AUTO 27003KT 6SM BR CLR 16/14 A2993 RMK AO2 SLP139 T01560144
                 =
2016-09-27 06:28 METAR KRDG 271028Z AUTO 31003KT 6SM BR SCT004 16/14 A2993 RMK AO2 T01560144 =
2016-09-27 06:18 METAR KRDG 271018Z AUTO 31003KT 7SM BKN004 16/15 A2993 =
2016-09-27 05:54 METAR KRDG 270954Z AUTO 29004KT 8SM OVC005 17/15 A2993 RMK AO2 SLP138 T01670150
                 =
2016-09-27 05:31 METAR KRDG 270931Z AUTO 00000KT 9SM BKN005 OVC060 16/15 A2992 RMK AO2 T01610150
                 =
2016-09-27 04:54 METAR KRDG 270854Z AUTO 29003KT 10SM FEW006 OVC060 16/15 A2993 RMK AO2 SLP138
                 60000 T01610150 55000 =
2016-09-27 04:49 METAR KRDG 270849Z AUTO 29003KT 10SM SCT007 OVC060 16/15 A2992 RMK AO2 =

Support USWX by starting your Amazon purchase here.